sensor_id;sensor_type;location;lat;lon;timestamp;P1;durP1;ratioP1;P2;durP2;ratioP2
6973;SDS011;3527;52.376;8.990;2022-12-07T00:02:32;41.37;;;26.23;;
6973;SDS011;3527;52.376;8.990;2022-12-07T00:05:20;39.77;;;24.77;;
6973;SDS011;3527;52.376;8.990;2022-12-07T00:08:09;44.37;;;26.63;;
6973;SDS011;3527;52.376;8.990;2022-12-07T00:11:06;44.03;;;25.97;;
6973;SDS011;3527;52.376;8.990;2022-12-07T00:14:02;43.10;;;25.93;;
6973;SDS011;3527;52.376;8.990;2022-12-07T00:16:52;48.47;;;26.20;;
6973;SDS011;3527;52.376;8.990;2022-12-07T00:19:39;46.87;;;26.83;;
6973;SDS011;3527;52.376;8.990;2022-12-07T00:22:26;42.90;;;26.20;;
6973;SDS011;3527;52.376;8.990;2022-12-07T00:25:13;43.37;;;27.67;;
6973;SDS011;3527;52.376;8.990;2022-12-07T00:28:01;46.10;;;26.20;;
6973;SDS011;3527;52.376;8.990;2022-12-07T00:30:49;49.57;;;27.07;;
6973;SDS011;3527;52.376;8.990;2022-12-07T00:33:36;45.80;;;27.23;;
6973;SDS011;3527;52.376;8.990;2022-12-07T00:36:25;47.90;;;27.30;;
6973;SDS011;3527;52.376;8.990;2022-12-07T00:39:13;44.53;;;25.20;;
6973;SDS011;3527;52.376;8.990;2022-12-07T00:42:00;49.13;;;27.90;;
6973;SDS011;3527;52.376;8.990;2022-12-07T00:44:47;45.00;;;26.77;;
6973;SDS011;3527;52.376;8.990;2022-12-07T00:47:35;53.97;;;29.27;;
6973;SDS011;3527;52.376;8.990;2022-12-07T00:50:22;45.27;;;27.03;;
6973;SDS011;3527;52.376;8.990;2022-12-07T00:53:09;46.63;;;26.87;;
6973;SDS011;3527;52.376;8.990;2022-12-07T00:55:56;50.13;;;28.17;;
6973;SDS011;3527;52.376;8.990;2022-12-07T00:58:44;46.33;;;27.83;;
6973;SDS011;3527;52.376;8.990;2022-12-07T01:01:36;50.90;;;27.97;;
6973;SDS011;3527;52.376;8.990;2022-12-07T01:04:23;46.33;;;27.23;;
6973;SDS011;3527;52.376;8.990;2022-12-07T01:07:11;49.93;;;29.23;;
6973;SDS011;3527;52.376;8.990;2022-12-07T01:09:58;44.30;;;26.70;;
6973;SDS011;3527;52.376;8.990;2022-12-07T01:12:46;44.93;;;27.47;;
6973;SDS011;3527;52.376;8.990;2022-12-07T01:15:33;47.27;;;27.17;;
6973;SDS011;3527;52.376;8.990;2022-12-07T01:18:20;46.90;;;27.57;;
6973;SDS011;3527;52.376;8.990;2022-12-07T01:21:12;43.83;;;26.40;;
6973;SDS011;3527;52.376;8.990;2022-12-07T01:24:01;47.27;;;27.30;;
6973;SDS011;3527;52.376;8.990;2022-12-07T01:26:50;42.13;;;25.77;;
6973;SDS011;3527;52.376;8.990;2022-12-07T01:29:37;43.23;;;25.63;;
6973;SDS011;3527;52.376;8.990;2022-12-07T01:32:24;43.67;;;24.53;;
6973;SDS011;3527;52.376;8.990;2022-12-07T01:35:11;42.10;;;24.67;;
6973;SDS011;3527;52.376;8.990;2022-12-07T01:37:58;39.07;;;22.40;;
6973;SDS011;3527;52.376;8.990;2022-12-07T01:40:53;42.43;;;24.27;;
6973;SDS011;3527;52.376;8.990;2022-12-07T01:47:06;44.07;;;23.47;;
6973;SDS011;3527;52.376;8.990;2022-12-07T01:49:53;38.63;;;23.00;;
6973;SDS011;3527;52.376;8.990;2022-12-07T01:52:41;41.07;;;22.37;;
6973;SDS011;3527;52.376;8.990;2022-12-07T01:55:29;42.37;;;22.77;;
6973;SDS011;3527;52.376;8.990;2022-12-07T01:58:17;40.80;;;22.90;;
6973;SDS011;3527;52.376;8.990;2022-12-07T02:01:05;39.80;;;22.30;;
6973;SDS011;3527;52.376;8.990;2022-12-07T02:03:52;38.93;;;21.70;;
6973;SDS011;3527;52.376;8.990;2022-12-07T02:06:40;35.23;;;21.10;;
6973;SDS011;3527;52.376;8.990;2022-12-07T02:09:29;34.73;;;19.60;;
6973;SDS011;3527;52.376;8.990;2022-12-07T02:12:16;33.50;;;19.93;;
6973;SDS011;3527;52.376;8.990;2022-12-07T02:15:04;36.63;;;20.73;;
6973;SDS011;3527;52.376;8.990;2022-12-07T02:18:01;36.50;;;21.17;;
6973;SDS011;3527;52.376;8.990;2022-12-07T02:21:02;37.00;;;20.70;;
6973;SDS011;3527;52.376;8.990;2022-12-07T02:30:13;36.50;;;20.17;;
6973;SDS011;3527;52.376;8.990;2022-12-07T02:33:06;40.83;;;20.60;;
6973;SDS011;3527;52.376;8.990;2022-12-07T02:36:03;46.17;;;22.57;;
6973;SDS011;3527;52.376;8.990;2022-12-07T02:38:56;39.97;;;21.03;;
6973;SDS011;3527;52.376;8.990;2022-12-07T02:41:53;46.83;;;22.23;;
6973;SDS011;3527;52.376;8.990;2022-12-07T02:44:45;37.03;;;20.20;;
6973;SDS011;3527;52.376;8.990;2022-12-07T02:47:33;35.50;;;19.93;;
6973;SDS011;3527;52.376;8.990;2022-12-07T02:50:23;41.30;;;21.33;;
6973;SDS011;3527;52.376;8.990;2022-12-07T02:59:29;42.60;;;21.80;;
6973;SDS011;3527;52.376;8.990;2022-12-07T03:14:38;40.77;;;19.47;;
6973;SDS011;3527;52.376;8.990;2022-12-07T03:17:33;44.33;;;20.87;;
6973;SDS011;3527;52.376;8.990;2022-12-07T03:20:23;42.40;;;20.37;;
6973;SDS011;3527;52.376;8.990;2022-12-07T03:23:12;46.40;;;19.17;;
6973;SDS011;3527;52.376;8.990;2022-12-07T03:26:03;42.13;;;18.37;;
6973;SDS011;3527;52.376;8.990;2022-12-07T03:28:54;44.73;;;20.70;;
6973;SDS011;3527;52.376;8.990;2022-12-07T03:31:46;49.17;;;21.37;;
6973;SDS011;3527;52.376;8.990;2022-12-07T03:34:46;46.03;;;19.73;;
6973;SDS011;3527;52.376;8.990;2022-12-07T03:37:55;38.60;;;18.83;;
6973;SDS011;3527;52.376;8.990;2022-12-07T03:41:01;42.17;;;18.73;;
6973;SDS011;3527;52.376;8.990;2022-12-07T03:43:55;38.40;;;17.83;;
6973;SDS011;3527;52.376;8.990;2022-12-07T03:46:46;41.70;;;18.03;;
6973;SDS011;3527;52.376;8.990;2022-12-07T03:49:50;42.43;;;18.07;;
6973;SDS011;3527;52.376;8.990;2022-12-07T03:52:44;38.57;;;18.60;;
6973;SDS011;3527;52.376;8.990;2022-12-07T03:55:40;38.80;;;18.67;;
6973;SDS011;3527;52.376;8.990;2022-12-07T03:58:30;39.20;;;18.10;;
6973;SDS011;3527;52.376;8.990;2022-12-07T04:01:20;39.90;;;16.67;;
6973;SDS011;3527;52.376;8.990;2022-12-07T04:04:10;39.07;;;16.93;;
6973;SDS011;3527;52.376;8.990;2022-12-07T04:06:57;35.27;;;17.40;;
6973;SDS011;3527;52.376;8.990;2022-12-07T04:09:45;38.23;;;17.47;;
6973;SDS011;3527;52.376;8.990;2022-12-07T04:12:32;36.53;;;16.73;;
6973;SDS011;3527;52.376;8.990;2022-12-07T04:15:19;35.87;;;17.20;;
6973;SDS011;3527;52.376;8.990;2022-12-07T04:18:06;39.33;;;16.63;;
6973;SDS011;3527;52.376;8.990;2022-12-07T04:20:53;33.33;;;15.77;;
6973;SDS011;3527;52.376;8.990;2022-12-07T04:23:40;31.37;;;14.63;;
6973;SDS011;3527;52.376;8.990;2022-12-07T04:26:27;27.37;;;13.80;;
6973;SDS011;3527;52.376;8.990;2022-12-07T04:29:15;32.80;;;14.97;;
6973;SDS011;3527;52.376;8.990;2022-12-07T04:32:03;32.97;;;14.33;;
6973;SDS011;3527;52.376;8.990;2022-12-07T04:34:50;33.90;;;14.20;;
6973;SDS011;3527;52.376;8.990;2022-12-07T04:37:41;25.40;;;13.47;;
6973;SDS011;3527;52.376;8.990;2022-12-07T04:40:28;27.50;;;13.87;;
6973;SDS011;3527;52.376;8.990;2022-12-07T04:43:15;28.20;;;13.77;;
6973;SDS011;3527;52.376;8.990;2022-12-07T04:46:03;27.57;;;12.97;;
6973;SDS011;3527;52.376;8.990;2022-12-07T04:48:51;24.43;;;11.90;;
6973;SDS011;3527;52.376;8.990;2022-12-07T04:51:39;23.20;;;12.10;;
6973;SDS011;3527;52.376;8.990;2022-12-07T04:54:28;26.03;;;12.10;;
6973;SDS011;3527;52.376;8.990;2022-12-07T04:57:15;28.03;;;11.97;;
6973;SDS011;3527;52.376;8.990;2022-12-07T05:00:02;21.60;;;10.57;;
6973;SDS011;3527;52.376;8.990;2022-12-07T05:02:50;26.17;;;11.07;;
6973;SDS011;3527;52.376;8.990;2022-12-07T05:05:40;23.73;;;10.73;;
6973;SDS011;3527;52.376;8.990;2022-12-07T05:08:28;25.63;;;11.13;;
6973;SDS011;3527;52.376;8.990;2022-12-07T05:11:15;21.87;;;10.93;;
6973;SDS011;3527;52.376;8.990;2022-12-07T05:14:21;18.33;;;9.90;;
6973;SDS011;3527;52.376;8.990;2022-12-07T05:17:08;20.27;;;10.23;;
6973;SDS011;3527;52.376;8.990;2022-12-07T05:19:56;21.43;;;9.80;;
6973;SDS011;3527;52.376;8.990;2022-12-07T05:22:43;16.63;;;9.10;;
6973;SDS011;3527;52.376;8.990;2022-12-07T05:25:30;18.90;;;8.77;;
6973;SDS011;3527;52.376;8.990;2022-12-07T05:28:17;14.90;;;7.70;;
6973;SDS011;3527;52.376;8.990;2022-12-07T05:31:04;19.73;;;8.97;;
6973;SDS011;3527;52.376;8.990;2022-12-07T05:33:51;14.60;;;7.27;;
6973;SDS011;3527;52.376;8.990;2022-12-07T05:36:39;15.47;;;7.63;;
6973;SDS011;3527;52.376;8.990;2022-12-07T05:39:26;15.63;;;6.57;;
6973;SDS011;3527;52.376;8.990;2022-12-07T05:42:14;13.33;;;6.10;;
6973;SDS011;3527;52.376;8.990;2022-12-07T05:45:01;10.90;;;5.83;;
6973;SDS011;3527;52.376;8.990;2022-12-07T05:47:48;10.47;;;6.20;;
6973;SDS011;3527;52.376;8.990;2022-12-07T05:50:36;15.60;;;6.13;;
6973;SDS011;3527;52.376;8.990;2022-12-07T05:53:23;11.63;;;5.80;;
6973;SDS011;3527;52.376;8.990;2022-12-07T05:56:11;10.70;;;5.80;;
6973;SDS011;3527;52.376;8.990;2022-12-07T05:58:58;11.70;;;5.63;;
6973;SDS011;3527;52.376;8.990;2022-12-07T06:02:05;10.97;;;5.43;;
6973;SDS011;3527;52.376;8.990;2022-12-07T06:04:57;10.70;;;5.73;;
6973;SDS011;3527;52.376;8.990;2022-12-07T06:07:45;14.17;;;6.20;;
6973;SDS011;3527;52.376;8.990;2022-12-07T06:10:32;11.17;;;4.93;;
6973;SDS011;3527;52.376;8.990;2022-12-07T06:13:20;11.23;;;4.80;;
6973;SDS011;3527;52.376;8.990;2022-12-07T06:16:07;12.23;;;4.40;;
6973;SDS011;3527;52.376;8.990;2022-12-07T06:18:54;9.93;;;4.07;;
6973;SDS011;3527;52.376;8.990;2022-12-07T06:21:42;13.30;;;4.30;;
6973;SDS011;3527;52.376;8.990;2022-12-07T06:24:30;8.70;;;3.27;;
6973;SDS011;3527;52.376;8.990;2022-12-07T06:27:17;6.80;;;3.27;;
6973;SDS011;3527;52.376;8.990;2022-12-07T06:30:05;11.50;;;3.30;;
6973;SDS011;3527;52.376;8.990;2022-12-07T06:32:53;8.27;;;3.20;;
6973;SDS011;3527;52.376;8.990;2022-12-07T06:35:40;8.33;;;2.60;;
6973;SDS011;3527;52.376;8.990;2022-12-07T06:38:28;10.03;;;2.60;;
6973;SDS011;3527;52.376;8.990;2022-12-07T06:41:15;7.23;;;2.70;;
6973;SDS011;3527;52.376;8.990;2022-12-07T06:44:02;5.67;;;2.80;;
6973;SDS011;3527;52.376;8.990;2022-12-07T06:46:51;6.00;;;2.83;;
6973;SDS011;3527;52.376;8.990;2022-12-07T06:49:58;8.27;;;2.73;;
6973;SDS011;3527;52.376;8.990;2022-12-07T06:52:45;6.47;;;3.00;;
6973;SDS011;3527;52.376;8.990;2022-12-07T06:55:32;5.73;;;2.53;;
6973;SDS011;3527;52.376;8.990;2022-12-07T06:58:19;7.40;;;3.13;;
6973;SDS011;3527;52.376;8.990;2022-12-07T07:01:11;7.63;;;3.00;;
6973;SDS011;3527;52.376;8.990;2022-12-07T07:04:02;9.87;;;2.93;;
6973;SDS011;3527;52.376;8.990;2022-12-07T07:06:50;8.77;;;2.60;;
6973;SDS011;3527;52.376;8.990;2022-12-07T07:09:45;5.97;;;2.47;;
6973;SDS011;3527;52.376;8.990;2022-12-07T07:12:32;7.20;;;3.07;;
6973;SDS011;3527;52.376;8.990;2022-12-07T07:15:19;9.30;;;2.77;;
6973;SDS011;3527;52.376;8.990;2022-12-07T07:18:06;6.20;;;2.57;;
6973;SDS011;3527;52.376;8.990;2022-12-07T07:20:54;8.23;;;3.17;;
6973;SDS011;3527;52.376;8.990;2022-12-07T07:23:41;6.60;;;2.70;;
6973;SDS011;3527;52.376;8.990;2022-12-07T07:26:29;7.63;;;3.20;;
6973;SDS011;3527;52.376;8.990;2022-12-07T07:29:16;15.13;;;3.20;;
6973;SDS011;3527;52.376;8.990;2022-12-07T07:32:04;8.70;;;2.97;;
6973;SDS011;3527;52.376;8.990;2022-12-07T07:34:52;9.50;;;3.10;;
6973;SDS011;3527;52.376;8.990;2022-12-07T07:37:40;11.27;;;3.60;;
6973;SDS011;3527;52.376;8.990;2022-12-07T07:40:27;9.57;;;3.30;;
6973;SDS011;3527;52.376;8.990;2022-12-07T07:43:15;7.00;;;3.07;;
6973;SDS011;3527;52.376;8.990;2022-12-07T07:46:03;7.10;;;3.17;;
6973;SDS011;3527;52.376;8.990;2022-12-07T07:48:50;12.30;;;3.77;;
6973;SDS011;3527;52.376;8.990;2022-12-07T07:51:37;12.60;;;3.83;;
6973;SDS011;3527;52.376;8.990;2022-12-07T07:54:25;11.63;;;3.73;;
6973;SDS011;3527;52.376;8.990;2022-12-07T07:57:12;12.90;;;3.67;;
6973;SDS011;3527;52.376;8.990;2022-12-07T07:59:59;10.13;;;3.67;;
6973;SDS011;3527;52.376;8.990;2022-12-07T08:02:47;12.40;;;3.63;;
6973;SDS011;3527;52.376;8.990;2022-12-07T08:05:36;7.87;;;3.07;;
6973;SDS011;3527;52.376;8.990;2022-12-07T08:08:24;9.17;;;3.33;;
6973;SDS011;3527;52.376;8.990;2022-12-07T08:11:13;9.33;;;3.73;;
6973;SDS011;3527;52.376;8.990;2022-12-07T08:14:01;6.67;;;3.20;;
6973;SDS011;3527;52.376;8.990;2022-12-07T08:16:49;9.00;;;3.20;;
6973;SDS011;3527;52.376;8.990;2022-12-07T08:19:38;11.63;;;3.60;;
6973;SDS011;3527;52.376;8.990;2022-12-07T08:22:27;10.57;;;3.70;;
6973;SDS011;3527;52.376;8.990;2022-12-07T08:25:16;9.37;;;3.50;;
6973;SDS011;3527;52.376;8.990;2022-12-07T08:28:05;8.87;;;3.33;;
6973;SDS011;3527;52.376;8.990;2022-12-07T08:30:58;10.43;;;3.20;;
6973;SDS011;3527;52.376;8.990;2022-12-07T08:33:49;8.20;;;2.80;;
6973;SDS011;3527;52.376;8.990;2022-12-07T08:36:39;10.37;;;3.47;;
6973;SDS011;3527;52.376;8.990;2022-12-07T08:39:29;9.10;;;3.10;;
6973;SDS011;3527;52.376;8.990;2022-12-07T08:42:22;6.63;;;2.60;;
6973;SDS011;3527;52.376;8.990;2022-12-07T08:45:15;10.70;;;2.97;;
6973;SDS011;3527;52.376;8.990;2022-12-07T08:48:13;5.57;;;2.60;;
6973;SDS011;3527;52.376;8.990;2022-12-07T08:51:04;7.50;;;2.87;;
6973;SDS011;3527;52.376;8.990;2022-12-07T08:53:54;6.27;;;2.43;;
6973;SDS011;3527;52.376;8.990;2022-12-07T08:56:46;8.70;;;2.67;;
6973;SDS011;3527;52.376;8.990;2022-12-07T08:59:44;13.87;;;3.00;;
6973;SDS011;3527;52.376;8.990;2022-12-07T09:02:32;8.13;;;2.80;;
6973;SDS011;3527;52.376;8.990;2022-12-07T09:05:20;8.13;;;2.70;;
6973;SDS011;3527;52.376;8.990;2022-12-07T09:08:09;6.27;;;2.60;;
6973;SDS011;3527;52.376;8.990;2022-12-07T09:10:57;10.13;;;3.13;;
6973;SDS011;3527;52.376;8.990;2022-12-07T09:13:44;4.33;;;3.00;;
6973;SDS011;3527;52.376;8.990;2022-12-07T09:16:31;11.67;;;3.57;;
6973;SDS011;3527;52.376;8.990;2022-12-07T09:19:18;10.70;;;3.40;;
6973;SDS011;3527;52.376;8.990;2022-12-07T09:22:06;9.37;;;3.97;;
6973;SDS011;3527;52.376;8.990;2022-12-07T09:24:54;8.30;;;3.63;;
6973;SDS011;3527;52.376;8.990;2022-12-07T09:27:43;6.07;;;3.43;;
6973;SDS011;3527;52.376;8.990;2022-12-07T09:30:32;12.27;;;4.23;;
6973;SDS011;3527;52.376;8.990;2022-12-07T09:33:41;7.93;;;3.43;;
6973;SDS011;3527;52.376;8.990;2022-12-07T09:36:30;9.10;;;3.40;;
6973;SDS011;3527;52.376;8.990;2022-12-07T09:39:20;9.07;;;3.20;;
6973;SDS011;3527;52.376;8.990;2022-12-07T09:42:08;7.03;;;2.80;;
6973;SDS011;3527;52.376;8.990;2022-12-07T09:45:10;10.53;;;3.30;;
6973;SDS011;3527;52.376;8.990;2022-12-07T09:48:02;7.03;;;2.77;;
6973;SDS011;3527;52.376;8.990;2022-12-07T09:50:50;5.97;;;2.97;;
6973;SDS011;3527;52.376;8.990;2022-12-07T09:53:42;5.37;;;3.27;;
6973;SDS011;3527;52.376;8.990;2022-12-07T09:56:31;7.20;;;3.10;;
6973;SDS011;3527;52.376;8.990;2022-12-07T09:59:19;14.07;;;3.00;;
6973;SDS011;3527;52.376;8.990;2022-12-07T10:02:28;7.73;;;2.70;;
6973;SDS011;3527;52.376;8.990;2022-12-07T10:05:45;6.10;;;2.70;;
6973;SDS011;3527;52.376;8.990;2022-12-07T10:08:35;6.30;;;3.43;;
6973;SDS011;3527;52.376;8.990;2022-12-07T10:11:24;7.33;;;2.47;;
6973;SDS011;3527;52.376;8.990;2022-12-07T10:14:13;8.80;;;2.80;;
6973;SDS011;3527;52.376;8.990;2022-12-07T10:17:02;10.13;;;2.87;;
6973;SDS011;3527;52.376;8.990;2022-12-07T10:23:13;10.67;;;2.50;;
6973;SDS011;3527;52.376;8.990;2022-12-07T10:29:36;11.40;;;2.90;;
6973;SDS011;3527;52.376;8.990;2022-12-07T10:38:15;6.43;;;2.80;;
6973;SDS011;3527;52.376;8.990;2022-12-07T10:41:07;5.80;;;2.40;;
6973;SDS011;3527;52.376;8.990;2022-12-07T10:43:56;5.47;;;2.80;;
6973;SDS011;3527;52.376;8.990;2022-12-07T10:46:47;11.00;;;3.13;;
6973;SDS011;3527;52.376;8.990;2022-12-07T10:56:14;8.23;;;3.00;;
6973;SDS011;3527;52.376;8.990;2022-12-07T10:59:21;7.23;;;2.70;;
6973;SDS011;3527;52.376;8.990;2022-12-07T11:11:34;7.93;;;3.00;;
6973;SDS011;3527;52.376;8.990;2022-12-07T11:14:40;9.23;;;3.10;;
6973;SDS011;3527;52.376;8.990;2022-12-07T11:24:19;5.33;;;2.60;;
6973;SDS011;3527;52.376;8.990;2022-12-07T11:30:14;7.77;;;2.73;;
6973;SDS011;3527;52.376;8.990;2022-12-07T11:33:10;7.43;;;2.67;;
6973;SDS011;3527;52.376;8.990;2022-12-07T11:42:12;8.63;;;3.07;;
6973;SDS011;3527;52.376;8.990;2022-12-07T11:51:00;6.73;;;2.23;;
6973;SDS011;3527;52.376;8.990;2022-12-07T11:53:53;4.03;;;2.23;;
6973;SDS011;3527;52.376;8.990;2022-12-07T11:56:47;10.90;;;2.30;;
6973;SDS011;3527;52.376;8.990;2022-12-07T11:59:41;7.63;;;2.07;;
6973;SDS011;3527;52.376;8.990;2022-12-07T12:02:37;9.77;;;2.20;;
6973;SDS011;3527;52.376;8.990;2022-12-07T12:05:59;10.73;;;2.47;;
6973;SDS011;3527;52.376;8.990;2022-12-07T12:21:34;8.67;;;1.80;;
6973;SDS011;3527;52.376;8.990;2022-12-07T12:24:25;8.43;;;1.73;;
6973;SDS011;3527;52.376;8.990;2022-12-07T12:27:18;7.33;;;2.00;;
6973;SDS011;3527;52.376;8.990;2022-12-07T12:33:32;6.80;;;1.70;;
6973;SDS011;3527;52.376;8.990;2022-12-07T12:39:31;7.73;;;1.90;;
6973;SDS011;3527;52.376;8.990;2022-12-07T12:42:20;6.33;;;1.97;;
6973;SDS011;3527;52.376;8.990;2022-12-07T12:45:29;7.33;;;2.20;;
6973;SDS011;3527;52.376;8.990;2022-12-07T12:48:27;6.70;;;1.83;;
6973;SDS011;3527;52.376;8.990;2022-12-07T12:51:45;10.57;;;2.33;;
6973;SDS011;3527;52.376;8.990;2022-12-07T12:54:32;5.37;;;1.80;;
6973;SDS011;3527;52.376;8.990;2022-12-07T12:57:29;8.77;;;2.40;;
6973;SDS011;3527;52.376;8.990;2022-12-07T13:03:16;6.60;;;1.57;;
6973;SDS011;3527;52.376;8.990;2022-12-07T13:06:34;8.93;;;2.00;;
6973;SDS011;3527;52.376;8.990;2022-12-07T13:12:20;3.40;;;1.73;;
6973;SDS011;3527;52.376;8.990;2022-12-07T13:15:30;6.93;;;2.23;;
6973;SDS011;3527;52.376;8.990;2022-12-07T13:18:34;4.40;;;1.53;;
6973;SDS011;3527;52.376;8.990;2022-12-07T13:24:13;9.43;;;1.63;;
6973;SDS011;3527;52.376;8.990;2022-12-07T13:27:01;4.90;;;1.80;;
6973;SDS011;3527;52.376;8.990;2022-12-07T13:29:50;4.60;;;1.77;;
6973;SDS011;3527;52.376;8.990;2022-12-07T13:32:38;5.60;;;2.00;;
6973;SDS011;3527;52.376;8.990;2022-12-07T13:38:25;7.67;;;2.17;;
6973;SDS011;3527;52.376;8.990;2022-12-07T13:41:19;5.70;;;2.10;;
6973;SDS011;3527;52.376;8.990;2022-12-07T13:44:09;7.40;;;2.57;;
6973;SDS011;3527;52.376;8.990;2022-12-07T13:49:54;8.43;;;2.23;;
6973;SDS011;3527;52.376;8.990;2022-12-07T13:52:43;8.63;;;2.83;;
6973;SDS011;3527;52.376;8.990;2022-12-07T13:55:31;3.13;;;1.90;;
6973;SDS011;3527;52.376;8.990;2022-12-07T13:58:19;7.37;;;2.90;;
6973;SDS011;3527;52.376;8.990;2022-12-07T14:01:07;5.77;;;2.50;;
6973;SDS011;3527;52.376;8.990;2022-12-07T14:03:54;7.73;;;2.90;;
6973;SDS011;3527;52.376;8.990;2022-12-07T14:06:48;6.07;;;2.60;;
6973;SDS011;3527;52.376;8.990;2022-12-07T14:09:38;6.87;;;2.53;;
6973;SDS011;3527;52.376;8.990;2022-12-07T14:12:25;8.40;;;2.67;;
6973;SDS011;3527;52.376;8.990;2022-12-07T14:15:15;8.50;;;2.47;;
6973;SDS011;3527;52.376;8.990;2022-12-07T14:18:24;6.93;;;2.50;;
6973;SDS011;3527;52.376;8.990;2022-12-07T14:21:26;8.23;;;2.83;;
6973;SDS011;3527;52.376;8.990;2022-12-07T14:24:16;4.37;;;2.20;;
6973;SDS011;3527;52.376;8.990;2022-12-07T14:27:05;10.20;;;2.33;;
6973;SDS011;3527;52.376;8.990;2022-12-07T14:30:04;8.37;;;3.07;;
6973;SDS011;3527;52.376;8.990;2022-12-07T14:32:54;9.03;;;2.50;;
6973;SDS011;3527;52.376;8.990;2022-12-07T14:35:44;5.93;;;2.67;;
6973;SDS011;3527;52.376;8.990;2022-12-07T14:38:31;7.03;;;3.33;;
6973;SDS011;3527;52.376;8.990;2022-12-07T14:41:18;5.23;;;2.40;;
6973;SDS011;3527;52.376;8.990;2022-12-07T14:44:27;9.03;;;3.00;;
6973;SDS011;3527;52.376;8.990;2022-12-07T14:47:21;8.10;;;3.40;;
6973;SDS011;3527;52.376;8.990;2022-12-07T14:50:29;8.40;;;2.97;;
6973;SDS011;3527;52.376;8.990;2022-12-07T14:53:21;8.93;;;3.03;;
6973;SDS011;3527;52.376;8.990;2022-12-07T14:56:15;9.63;;;2.87;;
6973;SDS011;3527;52.376;8.990;2022-12-07T14:59:04;8.50;;;3.07;;
6973;SDS011;3527;52.376;8.990;2022-12-07T15:01:53;8.90;;;3.40;;
6973;SDS011;3527;52.376;8.990;2022-12-07T15:04:43;8.43;;;3.57;;
6973;SDS011;3527;52.376;8.990;2022-12-07T15:07:32;14.00;;;3.80;;
6973;SDS011;3527;52.376;8.990;2022-12-07T15:10:25;9.50;;;3.70;;
6973;SDS011;3527;52.376;8.990;2022-12-07T15:13:21;12.10;;;4.00;;
6973;SDS011;3527;52.376;8.990;2022-12-07T15:16:30;12.37;;;4.83;;
6973;SDS011;3527;52.376;8.990;2022-12-07T15:19:41;7.53;;;4.00;;
6973;SDS011;3527;52.376;8.990;2022-12-07T15:22:31;10.57;;;4.70;;
6973;SDS011;3527;52.376;8.990;2022-12-07T15:25:27;6.93;;;3.73;;
6973;SDS011;3527;52.376;8.990;2022-12-07T15:28:17;11.13;;;4.07;;
6973;SDS011;3527;52.376;8.990;2022-12-07T15:31:15;10.30;;;4.43;;
6973;SDS011;3527;52.376;8.990;2022-12-07T15:34:39;12.70;;;4.77;;
6973;SDS011;3527;52.376;8.990;2022-12-07T15:37:27;10.27;;;4.27;;
6973;SDS011;3527;52.376;8.990;2022-12-07T15:40:16;10.77;;;5.47;;
6973;SDS011;3527;52.376;8.990;2022-12-07T15:43:08;13.23;;;5.17;;
6973;SDS011;3527;52.376;8.990;2022-12-07T15:46:18;8.77;;;4.33;;
6973;SDS011;3527;52.376;8.990;2022-12-07T15:49:11;10.00;;;4.60;;
6973;SDS011;3527;52.376;8.990;2022-12-07T15:52:04;8.83;;;4.57;;
6973;SDS011;3527;52.376;8.990;2022-12-07T15:54:53;13.03;;;4.50;;
6973;SDS011;3527;52.376;8.990;2022-12-07T15:57:42;7.60;;;4.00;;
6973;SDS011;3527;52.376;8.990;2022-12-07T16:00:32;12.37;;;4.97;;
6973;SDS011;3527;52.376;8.990;2022-12-07T16:03:21;13.60;;;5.47;;
6973;SDS011;3527;52.376;8.990;2022-12-07T16:06:09;9.60;;;3.93;;
6973;SDS011;3527;52.376;8.990;2022-12-07T16:08:58;9.97;;;4.47;;
6973;SDS011;3527;52.376;8.990;2022-12-07T16:11:48;10.70;;;4.93;;
6973;SDS011;3527;52.376;8.990;2022-12-07T16:14:40;9.10;;;3.83;;
6973;SDS011;3527;52.376;8.990;2022-12-07T16:17:30;9.40;;;4.40;;
6973;SDS011;3527;52.376;8.990;2022-12-07T16:20:19;11.67;;;4.23;;
6973;SDS011;3527;52.376;8.990;2022-12-07T16:23:07;10.27;;;4.47;;
6973;SDS011;3527;52.376;8.990;2022-12-07T16:28:56;10.23;;;4.67;;
6973;SDS011;3527;52.376;8.990;2022-12-07T16:31:46;10.83;;;4.17;;
6973;SDS011;3527;52.376;8.990;2022-12-07T16:34:36;11.50;;;3.97;;
6973;SDS011;3527;52.376;8.990;2022-12-07T16:37:25;9.53;;;4.77;;
6973;SDS011;3527;52.376;8.990;2022-12-07T16:40:14;11.93;;;4.43;;
6973;SDS011;3527;52.376;8.990;2022-12-07T16:43:04;8.60;;;3.73;;
6973;SDS011;3527;52.376;8.990;2022-12-07T16:45:54;6.50;;;3.50;;
6973;SDS011;3527;52.376;8.990;2022-12-07T16:48:41;8.23;;;4.00;;
6973;SDS011;3527;52.376;8.990;2022-12-07T16:51:31;11.20;;;3.97;;
6973;SDS011;3527;52.376;8.990;2022-12-07T16:54:31;9.93;;;3.90;;
6973;SDS011;3527;52.376;8.990;2022-12-07T16:57:21;8.43;;;3.50;;
6973;SDS011;3527;52.376;8.990;2022-12-07T17:00:10;7.43;;;3.60;;
6973;SDS011;3527;52.376;8.990;2022-12-07T17:02:58;9.03;;;3.40;;
6973;SDS011;3527;52.376;8.990;2022-12-07T17:05:46;7.67;;;2.97;;
6973;SDS011;3527;52.376;8.990;2022-12-07T17:08:35;8.17;;;3.50;;
6973;SDS011;3527;52.376;8.990;2022-12-07T17:11:23;8.93;;;3.57;;
6973;SDS011;3527;52.376;8.990;2022-12-07T17:14:12;5.27;;;3.10;;
6973;SDS011;3527;52.376;8.990;2022-12-07T17:17:18;8.73;;;3.43;;
6973;SDS011;3527;52.376;8.990;2022-12-07T17:20:06;5.20;;;2.93;;
6973;SDS011;3527;52.376;8.990;2022-12-07T17:22:54;7.50;;;3.17;;
6973;SDS011;3527;52.376;8.990;2022-12-07T17:25:41;5.53;;;3.13;;
6973;SDS011;3527;52.376;8.990;2022-12-07T17:28:28;6.87;;;3.30;;
6973;SDS011;3527;52.376;8.990;2022-12-07T17:31:17;8.77;;;3.60;;
6973;SDS011;3527;52.376;8.990;2022-12-07T17:34:13;10.67;;;3.70;;
6973;SDS011;3527;52.376;8.990;2022-12-07T17:37:01;8.23;;;3.90;;
6973;SDS011;3527;52.376;8.990;2022-12-07T17:39:48;10.43;;;3.40;;
6973;SDS011;3527;52.376;8.990;2022-12-07T17:42:36;8.50;;;3.10;;
6973;SDS011;3527;52.376;8.990;2022-12-07T17:45:26;9.77;;;3.60;;
6973;SDS011;3527;52.376;8.990;2022-12-07T17:48:14;10.50;;;3.60;;
6973;SDS011;3527;52.376;8.990;2022-12-07T17:51:02;9.33;;;4.17;;
6973;SDS011;3527;52.376;8.990;2022-12-07T17:54:10;9.27;;;4.10;;
6973;SDS011;3527;52.376;8.990;2022-12-07T17:56:58;11.17;;;4.10;;
6973;SDS011;3527;52.376;8.990;2022-12-07T17:59:46;9.37;;;4.43;;
6973;SDS011;3527;52.376;8.990;2022-12-07T18:02:33;10.00;;;4.87;;
6973;SDS011;3527;52.376;8.990;2022-12-07T18:05:21;9.37;;;4.10;;
6973;SDS011;3527;52.376;8.990;2022-12-07T18:08:10;9.37;;;3.70;;
6973;SDS011;3527;52.376;8.990;2022-12-07T18:10:59;9.07;;;5.10;;
6973;SDS011;3527;52.376;8.990;2022-12-07T18:13:48;10.03;;;4.40;;
6973;SDS011;3527;52.376;8.990;2022-12-07T18:16:36;5.70;;;4.13;;
6973;SDS011;3527;52.376;8.990;2022-12-07T18:19:25;8.13;;;4.07;;
6973;SDS011;3527;52.376;8.990;2022-12-07T18:22:13;7.20;;;4.03;;
6973;SDS011;3527;52.376;8.990;2022-12-07T18:25:01;10.53;;;4.77;;
6973;SDS011;3527;52.376;8.990;2022-12-07T18:27:51;10.60;;;4.50;;
6973;SDS011;3527;52.376;8.990;2022-12-07T18:30:40;11.43;;;5.13;;
6973;SDS011;3527;52.376;8.990;2022-12-07T18:33:49;11.87;;;4.70;;
6973;SDS011;3527;52.376;8.990;2022-12-07T18:36:38;15.60;;;4.77;;
6973;SDS011;3527;52.376;8.990;2022-12-07T18:39:30;9.40;;;4.60;;
6973;SDS011;3527;52.376;8.990;2022-12-07T18:42:20;8.73;;;4.33;;
6973;SDS011;3527;52.376;8.990;2022-12-07T18:45:09;7.63;;;4.20;;
6973;SDS011;3527;52.376;8.990;2022-12-07T18:47:59;10.10;;;4.70;;
6973;SDS011;3527;52.376;8.990;2022-12-07T18:50:47;8.97;;;4.60;;
6973;SDS011;3527;52.376;8.990;2022-12-07T18:53:46;7.77;;;4.47;;
6973;SDS011;3527;52.376;8.990;2022-12-07T18:56:34;10.00;;;4.50;;
6973;SDS011;3527;52.376;8.990;2022-12-07T18:59:23;10.47;;;5.07;;
6973;SDS011;3527;52.376;8.990;2022-12-07T19:02:32;7.60;;;3.83;;
6973;SDS011;3527;52.376;8.990;2022-12-07T19:05:23;13.87;;;4.93;;
6973;SDS011;3527;52.376;8.990;2022-12-07T19:08:11;10.77;;;4.63;;
6973;SDS011;3527;52.376;8.990;2022-12-07T19:10:58;7.83;;;4.30;;
6973;SDS011;3527;52.376;8.990;2022-12-07T19:14:10;8.53;;;4.17;;
6973;SDS011;3527;52.376;8.990;2022-12-07T19:16:58;9.50;;;4.50;;
6973;SDS011;3527;52.376;8.990;2022-12-07T19:19:52;7.73;;;4.60;;
6973;SDS011;3527;52.376;8.990;2022-12-07T19:22:41;7.70;;;5.10;;
6973;SDS011;3527;52.376;8.990;2022-12-07T19:25:31;9.10;;;4.93;;
6973;SDS011;3527;52.376;8.990;2022-12-07T19:28:19;10.07;;;5.27;;